<?xml version="1.0" encoding="UTF-8" standalone="no" ?>
<gpx xmlns="http://www.topografix.com/GPX/1/1" xmlns:xsi="http://www.w3.org/2001/XMLSchema-instance" xsi:schemaLocation="http://www.topografix.com/GPX/1/1 http://www.topografix.com/GPX/1/1/gpx.xsd" version="1.1" creator="VisuGPX - https://www.visugpx.com">
  <metadata>
    <name>Gorges du Tarn et causses</name>
    <desc><![CDATA[Castelbouc ste enimie la Malène  cirque des baumes les vignes Pierre le Rozier v2]]></desc>
  </metadata>
  <wpt lat="44.21902" lon="3.26139">
    <ele>898.7</ele>
  </wpt>
  <wpt lat="44.19407" lon="3.22936">
    <ele>690.8</ele>
  </wpt>
  <wpt lat="44.19883" lon="3.22555">
    <ele>808.2</ele>
  </wpt>
  <wpt lat="44.19331" lon="3.21543">
    <ele>581.7</ele>
  </wpt>
  <wpt lat="44.31108" lon="3.24317">
    <ele>764.2</ele>
  </wpt>
  <wpt lat="44.31239" lon="3.24288">
    <ele>829.9</ele>
  </wpt>
  <wpt lat="44.21967" lon="3.23447">
    <ele>813.2</ele>
  </wpt>
  <wpt lat="44.22967" lon="3.23878">
    <ele>788.7</ele>
  </wpt>
  <wpt lat="44.23447" lon="3.23763">
    <ele>742.1</ele>
  </wpt>
  <wpt lat="44.23928" lon="3.23749">
    <ele>800.2</ele>
  </wpt>
  <wpt lat="44.24031" lon="3.24007">
    <ele>838.7</ele>
  </wpt>
  <wpt lat="44.2072" lon="3.2302">
    <ele>706.5</ele>
  </wpt>
  <wpt lat="44.2625" lon="3.25718">
    <ele>1000.2</ele>
  </wpt>
  <wpt lat="44.21488" lon="3.26076">
    <ele>877.2</ele>
  </wpt>
  <wpt lat="44.19391" lon="3.23061">
    <ele>716.4</ele>
  </wpt>
  <wpt lat="44.19383" lon="3.23308">
    <ele>751.6</ele>
  </wpt>
  <wpt lat="44.22024" lon="3.22956">
    <ele>704.5</ele>
  </wpt>
  <wpt lat="44.2073" lon="3.24151">
    <ele>868.3</ele>
  </wpt>
  <wpt lat="44.21593" lon="3.2603">
    <ele>884.5</ele>
  </wpt>
  <wpt lat="44.26696" lon="3.2432">
    <ele>907.7</ele>
  </wpt>
  <wpt lat="44.31854" lon="3.24998">
    <ele>867.2</ele>
  </wpt>
  <wpt lat="44.30307" lon="3.28486">
    <ele>867.7</ele>
  </wpt>
  <wpt lat="44.31187" lon="3.29871">
    <ele>833</ele>
  </wpt>
  <wpt lat="44.31364" lon="3.30549">
    <ele>773</ele>
  </wpt>
  <wpt lat="44.30264" lon="3.32484">
    <ele>457</ele>
  </wpt>
  <wpt lat="44.30054" lon="3.31711">
    <ele>448.5</ele>
  </wpt>
  <wpt lat="44.30144" lon="3.33522">
    <ele>846.7</ele>
  </wpt>
  <wpt lat="44.29928" lon="3.35262">
    <ele>805.8</ele>
  </wpt>
  <wpt lat="44.33585" lon="3.42023">
    <ele>1140</ele>
  </wpt>
  <wpt lat="44.33563" lon="3.38493">
    <ele>497.1</ele>
  </wpt>
  <wpt lat="44.22652" lon="3.25862">
    <ele>979.2</ele>
  </wpt>
  <wpt lat="44.19407" lon="3.22936">
    <ele>690.8</ele>
  </wpt>
  <wpt lat="44.19883" lon="3.22555">
    <ele>808.2</ele>
  </wpt>
  <wpt lat="44.19331" lon="3.21543">
    <ele>581.7</ele>
  </wpt>
  <wpt lat="44.31108" lon="3.24317">
    <ele>764.2</ele>
  </wpt>
  <wpt lat="44.31239" lon="3.24288">
    <ele>829.9</ele>
  </wpt>
  <wpt lat="44.21967" lon="3.23447">
    <ele>813.2</ele>
  </wpt>
  <wpt lat="44.22967" lon="3.23878">
    <ele>788.7</ele>
  </wpt>
  <wpt lat="44.23447" lon="3.23763">
    <ele>742.1</ele>
  </wpt>
  <wpt lat="44.23928" lon="3.23749">
    <ele>800.2</ele>
  </wpt>
  <wpt lat="44.24031" lon="3.24007">
    <ele>838.7</ele>
  </wpt>
  <wpt lat="44.2072" lon="3.2302">
    <ele>706.5</ele>
  </wpt>
  <wpt lat="44.26087" lon="3.25653">
    <ele>999.9</ele>
  </wpt>
  <wpt lat="44.21488" lon="3.26076">
    <ele>877.2</ele>
  </wpt>
  <wpt lat="44.19391" lon="3.23061">
    <ele>716.4</ele>
  </wpt>
  <wpt lat="44.19383" lon="3.23308">
    <ele>751.6</ele>
  </wpt>
  <wpt lat="44.22024" lon="3.22956">
    <ele>704.5</ele>
  </wpt>
  <wpt lat="44.21247" lon="3.24243">
    <ele>877.3</ele>
  </wpt>
  <wpt lat="44.21593" lon="3.2603">
    <ele>884.5</ele>
  </wpt>
  <wpt lat="44.26696" lon="3.2432">
    <ele>907.7</ele>
  </wpt>
  <wpt lat="44.31854" lon="3.24998">
    <ele>867.2</ele>
  </wpt>
  <wpt lat="44.30307" lon="3.28486">
    <ele>867.7</ele>
  </wpt>
  <wpt lat="44.31187" lon="3.29871">
    <ele>833</ele>
  </wpt>
  <wpt lat="44.31364" lon="3.30549">
    <ele>773</ele>
  </wpt>
  <wpt lat="44.2903" lon="3.29529">
    <ele>907</ele>
  </wpt>
  <wpt lat="44.30054" lon="3.31711">
    <ele>448.5</ele>
  </wpt>
  <wpt lat="44.30144" lon="3.33522">
    <ele>846.7</ele>
  </wpt>
  <wpt lat="44.29928" lon="3.35262">
    <ele>805.8</ele>
  </wpt>
  <wpt lat="44.33585" lon="3.42023">
    <ele>1140</ele>
  </wpt>
  <wpt lat="44.33563" lon="3.38493">
    <ele>497.1</ele>
  </wpt>
  <trk>
    <name><![CDATA[Gorges du Tarn et causses_1]]></name>
    <desc><![CDATA[Castelboux- ste enimie- puech alluech- coperlac- la Malène bivouac tarn]]></desc>
    <extensions>
      <line xmlns="http://www.topografix.com/GPX/gpx_style/0/2">
        <color>0000FF</color>
        <opacity>0.9</opacity>
        <width>3</width>
        <dasharray>3</dasharray>
      </line>
    </extensions>
    <trkseg>
      <trkpt lat="44.33963" lon="3.46568">
        <ele>490.8</ele>
        <time>2021-06-01T08:50:47.000Z</time>
      </trkpt>
      <trkpt lat="44.33963" lon="3.46568">
        <ele>490.8</ele>
        <time>2021-06-01T08:50:47.000Z</time>
      </trkpt>
      <trkpt lat="44.33963" lon="3.46568">
        <ele>490.8</ele>
        <time>2021-06-01T08:50:47.000Z</time>
      </trkpt>
      <trkpt lat="44.33961" lon="3.46483">
        <ele>507.6</ele>
        <time>2021-06-01T08:51:19.825Z</time>
      </trkpt>
      <trkpt lat="44.34001" lon="3.46456">
        <ele>498.9</ele>
        <time>2021-06-01T08:51:23.242Z</time>
      </trkpt>
      <trkpt lat="44.34053" lon="3.46441">
        <ele>492.6</ele>
        <time>2021-06-01T08:51:27.314Z</time>
      </trkpt>
      <trkpt lat="44.34095" lon="3.4642">
        <ele>487.3</ele>
        <time>2021-06-01T08:51:30.747Z</time>
      </trkpt>
      <trkpt lat="44.34078" lon="3.46381">
        <ele>492</ele>
        <time>2021-06-01T08:51:48.089Z</time>
      </trkpt>
      <trkpt lat="44.34073" lon="3.4636">
        <ele>494.6</ele>
        <time>2021-06-01T08:51:56.580Z</time>
      </trkpt>
      <trkpt lat="44.34089" lon="3.46358">
        <ele>493.6</ele>
        <time>2021-06-01T08:51:57.806Z</time>
      </trkpt>
      <trkpt lat="44.3412" lon="3.46379">
        <ele>493.2</ele>
        <time>2021-06-01T08:52:01.975Z</time>
      </trkpt>
      <trkpt lat="44.34145" lon="3.46445">
        <ele>483.7</ele>
        <time>2021-06-01T08:52:06.106Z</time>
      </trkpt>
      <trkpt lat="44.34281" lon="3.46459">
        <ele>488.9</ele>
        <time>2021-06-01T08:52:35.142Z</time>
      </trkpt>
      <trkpt lat="44.34433" lon="3.46402">
        <ele>489</ele>
        <time>2021-06-01T08:52:57.107Z</time>
      </trkpt>
      <trkpt lat="44.34568" lon="3.46344">
        <ele>485.5</ele>
        <time>2021-06-01T08:53:11.677Z</time>
      </trkpt>
      <trkpt lat="44.34635" lon="3.46265">
        <ele>489.7</ele>
        <time>2021-06-01T08:53:32.641Z</time>
      </trkpt>
      <trkpt lat="44.34635" lon="3.46227">
        <ele>493.7</ele>
        <time>2021-06-01T08:53:47.299Z</time>
      </trkpt>
      <trkpt lat="44.34759" lon="3.46063">
        <ele>491.3</ele>
        <time>2021-06-01T08:54:07.423Z</time>
      </trkpt>
      <trkpt lat="44.34811" lon="3.45974">
        <ele>495.4</ele>
        <time>2021-06-01T08:54:27.302Z</time>
      </trkpt>
      <trkpt lat="44.34917" lon="3.45803">
        <ele>491.9</ele>
        <time>2021-06-01T08:54:44.656Z</time>
      </trkpt>
      <trkpt lat="44.35016" lon="3.45597">
        <ele>495.9</ele>
        <time>2021-06-01T08:55:15.724Z</time>
      </trkpt>
      <trkpt lat="44.35173" lon="3.45336">
        <ele>506</ele>
        <time>2021-06-01T08:56:10.176Z</time>
      </trkpt>
      <trkpt lat="44.35208" lon="3.45211">
        <ele>516.7</ele>
        <time>2021-06-01T08:56:49.130Z</time>
      </trkpt>
      <trkpt lat="44.35193" lon="3.45035">
        <ele>520.8</ele>
        <time>2021-06-01T08:57:14.096Z</time>
      </trkpt>
      <trkpt lat="44.35266" lon="3.44802">
        <ele>484.7</ele>
        <time>2021-06-01T08:57:28.110Z</time>
      </trkpt>
      <trkpt lat="44.35218" lon="3.44685">
        <ele>527.3</ele>
        <time>2021-06-01T08:58:19.571Z</time>
      </trkpt>
      <trkpt lat="44.35301" lon="3.44621">
        <ele>512.3</ele>
        <time>2021-06-01T08:58:26.934Z</time>
      </trkpt>
      <trkpt lat="44.35445" lon="3.44559">
        <ele>499.9</ele>
        <time>2021-06-01T08:58:38.522Z</time>
      </trkpt>
      <trkpt lat="44.35586" lon="3.44525">
        <ele>500.9</ele>
        <time>2021-06-01T08:58:59.703Z</time>
      </trkpt>
      <trkpt lat="44.35787" lon="3.44445">
        <ele>499.2</ele>
        <time>2021-06-01T08:59:26.251Z</time>
      </trkpt>
      <trkpt lat="44.3574" lon="3.44149">
        <ele>493.4</ele>
        <time>2021-06-01T08:59:48.208Z</time>
      </trkpt>
      <trkpt lat="44.35647" lon="3.43764">
        <ele>496.3</ele>
        <time>2021-06-01T09:00:32.528Z</time>
      </trkpt>
      <trkpt lat="44.357" lon="3.43573">
        <ele>495.1</ele>
        <time>2021-06-01T09:00:51.238Z</time>
      </trkpt>
      <trkpt lat="44.35872" lon="3.43475">
        <ele>480.2</ele>
        <time>2021-06-01T09:01:05.571Z</time>
      </trkpt>
      <trkpt lat="44.35986" lon="3.43423">
        <ele>476.4</ele>
        <time>2021-06-01T09:01:17.137Z</time>
      </trkpt>
      <trkpt lat="44.36316" lon="3.43432">
        <ele>482.1</ele>
        <time>2021-06-01T09:02:11.515Z</time>
      </trkpt>
      <trkpt lat="44.36532" lon="3.43325">
        <ele>481.5</ele>
        <time>2021-06-01T09:02:42.039Z</time>
      </trkpt>
      <trkpt lat="44.36581" lon="3.43211">
        <ele>477.6</ele>
        <time>2021-06-01T09:02:50.361Z</time>
      </trkpt>
      <trkpt lat="44.36566" lon="3.43035">
        <ele>482.7</ele>
        <time>2021-06-01T09:03:18.160Z</time>
      </trkpt>
      <trkpt lat="44.36438" lon="3.42538">
        <ele>499.5</ele>
        <time>2021-06-01T09:04:46.515Z</time>
      </trkpt>
      <trkpt lat="44.36513" lon="3.42164">
        <ele>482.4</ele>
        <time>2021-06-01T09:05:06.971Z</time>
      </trkpt>
      <trkpt lat="44.36504" lon="3.41877">
        <ele>494.1</ele>
        <time>2021-06-01T09:05:59.185Z</time>
      </trkpt>
      <trkpt lat="44.36498" lon="3.41477">
        <ele>492.8</ele>
        <time>2021-06-01T09:06:36.183Z</time>
      </trkpt>
      <trkpt lat="44.36467" lon="3.41082">
        <ele>470.4</ele>
        <time>2021-06-01T09:06:58.095Z</time>
      </trkpt>
      <trkpt lat="44.36569" lon="3.41022">
        <ele>474.9</ele>
        <time>2021-06-01T09:07:22.479Z</time>
      </trkpt>
      <trkpt lat="44.36572" lon="3.41152">
        <ele>475.8</ele>
        <time>2021-06-01T09:07:36.586Z</time>
      </trkpt>
      <trkpt lat="44.36587" lon="3.41132">
        <ele>477</ele>
        <time>2021-06-01T09:07:41.969Z</time>
      </trkpt>
      <trkpt lat="44.36627" lon="3.41174">
        <ele>486.6</ele>
        <time>2021-06-01T09:08:08.751Z</time>
      </trkpt>
      <trkpt lat="44.36657" lon="3.4117">
        <ele>493.4</ele>
        <time>2021-06-01T09:08:24.452Z</time>
      </trkpt>
      <trkpt lat="44.36656" lon="3.41137">
        <ele>491.2</ele>
        <time>2021-06-01T09:08:26.318Z</time>
      </trkpt>
      <trkpt lat="44.36662" lon="3.41099">
        <ele>489.4</ele>
        <time>2021-06-01T09:08:28.315Z</time>
      </trkpt>
      <trkpt lat="44.36635" lon="3.41082">
        <ele>483.6</ele>
        <time>2021-06-01T09:08:30.581Z</time>
      </trkpt>
      <trkpt lat="44.36605" lon="3.411">
        <ele>479.3</ele>
        <time>2021-06-01T09:08:33.073Z</time>
      </trkpt>
      <trkpt lat="44.36576" lon="3.41073">
        <ele>474.7</ele>
        <time>2021-06-01T09:08:35.792Z</time>
      </trkpt>
      <trkpt lat="44.36547" lon="3.41025">
        <ele>472.7</ele>
        <time>2021-06-01T09:08:39.580Z</time>
      </trkpt>
      <trkpt lat="44.36459" lon="3.41055">
        <ele>470.2</ele>
        <time>2021-06-01T09:08:48.798Z</time>
      </trkpt>
      <trkpt lat="44.3644" lon="3.41134">
        <ele>471.3</ele>
        <time>2021-06-01T09:08:58.703Z</time>
      </trkpt>
      <trkpt lat="44.3646" lon="3.41219">
        <ele>474.3</ele>
        <time>2021-06-01T09:09:13.952Z</time>
      </trkpt>
      <trkpt lat="44.36469" lon="3.41248">
        <ele>475.4</ele>
        <time>2021-06-01T09:09:19.316Z</time>
      </trkpt>
      <trkpt lat="44.3647" lon="3.41251">
        <ele>475.5</ele>
        <time>2021-06-01T09:09:19.871Z</time>
      </trkpt>
      <trkpt lat="44.36447" lon="3.41355">
        <ele>487.9</ele>
        <time>2021-06-01T09:10:01.483Z</time>
      </trkpt>
      <trkpt lat="44.36389" lon="3.41423">
        <ele>509</ele>
        <time>2021-06-01T09:10:41.948Z</time>
      </trkpt>
      <trkpt lat="44.36332" lon="3.41484">
        <ele>532.2</ele>
        <time>2021-06-01T09:11:20.321Z</time>
      </trkpt>
      <trkpt lat="44.36262" lon="3.41515">
        <ele>545.3</ele>
        <time>2021-06-01T09:11:59.580Z</time>
      </trkpt>
      <trkpt lat="44.36234" lon="3.41563">
        <ele>572.6</ele>
        <time>2021-06-01T09:12:23.261Z</time>
      </trkpt>
      <trkpt lat="44.36373" lon="3.41616">
        <ele>570.9</ele>
        <time>2021-06-01T09:12:40.703Z</time>
      </trkpt>
      <trkpt lat="44.3637" lon="3.4164">
        <ele>576.7</ele>
        <time>2021-06-01T09:12:50.017Z</time>
      </trkpt>
      <trkpt lat="44.36356" lon="3.41668">
        <ele>589.6</ele>
        <time>2021-06-01T09:13:03.078Z</time>
      </trkpt>
      <trkpt lat="44.36343" lon="3.4166">
        <ele>593.9</ele>
        <time>2021-06-01T09:13:10.671Z</time>
      </trkpt>
      <trkpt lat="44.36333" lon="3.4168">
        <ele>602.8</ele>
        <time>2021-06-01T09:13:20.001Z</time>
      </trkpt>
      <trkpt lat="44.36322" lon="3.41724">
        <ele>611.9</ele>
        <time>2021-06-01T09:13:37.819Z</time>
      </trkpt>
      <trkpt lat="44.36276" lon="3.41706">
        <ele>622.5</ele>
        <time>2021-06-01T09:14:03.358Z</time>
      </trkpt>
      <trkpt lat="44.36273" lon="3.41798">
        <ele>644</ele>
        <time>2021-06-01T09:14:38.563Z</time>
      </trkpt>
      <trkpt lat="44.36263" lon="3.41759">
        <ele>643.6</ele>
        <time>2021-06-01T09:14:42.071Z</time>
      </trkpt>
      <trkpt lat="44.36205" lon="3.41749">
        <ele>658.2</ele>
        <time>2021-06-01T09:15:13.317Z</time>
      </trkpt>
      <trkpt lat="44.36116" lon="3.41769">
        <ele>700.5</ele>
        <time>2021-06-01T09:16:01.514Z</time>
      </trkpt>
      <trkpt lat="44.36149" lon="3.41799">
        <ele>701.5</ele>
        <time>2021-06-01T09:16:08.625Z</time>
      </trkpt>
      <trkpt lat="44.36193" lon="3.41823">
        <ele>692.1</ele>
        <time>2021-06-01T09:16:12.271Z</time>
      </trkpt>
      <trkpt lat="44.36142" lon="3.4183">
        <ele>721.1</ele>
        <time>2021-06-01T09:16:39.670Z</time>
      </trkpt>
      <trkpt lat="44.36114" lon="3.41811">
        <ele>724</ele>
        <time>2021-06-01T09:16:50.190Z</time>
      </trkpt>
      <trkpt lat="44.36082" lon="3.41839">
        <ele>751.9</ele>
        <time>2021-06-01T09:17:10.372Z</time>
      </trkpt>
      <trkpt lat="44.36044" lon="3.4177">
        <ele>748</ele>
        <time>2021-06-01T09:17:14.915Z</time>
      </trkpt>
      <trkpt lat="44.3605" lon="3.41846">
        <ele>773.9</ele>
        <time>2021-06-01T09:17:44.144Z</time>
      </trkpt>
      <trkpt lat="44.36018" lon="3.41795">
        <ele>776.7</ele>
        <time>2021-06-01T09:17:56.530Z</time>
      </trkpt>
      <trkpt lat="44.36035" lon="3.41861">
        <ele>786.9</ele>
        <time>2021-06-01T09:18:23.347Z</time>
      </trkpt>
      <trkpt lat="44.36068" lon="3.41903">
        <ele>780.4</ele>
        <time>2021-06-01T09:18:26.791Z</time>
      </trkpt>
      <trkpt lat="44.36013" lon="3.41921">
        <ele>814.2</ele>
        <time>2021-06-01T09:18:56.993Z</time>
      </trkpt>
      <trkpt lat="44.36102" lon="3.41991">
        <ele>776</ele>
        <time>2021-06-01T09:19:04.875Z</time>
      </trkpt>
      <trkpt lat="44.36093" lon="3.4207">
        <ele>790</ele>
        <time>2021-06-01T09:19:35.455Z</time>
      </trkpt>
      <trkpt lat="44.36105" lon="3.42128">
        <ele>787.8</ele>
        <time>2021-06-01T09:19:38.921Z</time>
      </trkpt>
      <trkpt lat="44.36031" lon="3.42335">
        <ele>825.1</ele>
        <time>2021-06-01T09:21:07.392Z</time>
      </trkpt>
      <trkpt lat="44.35861" lon="3.42688">
        <ele>837.6</ele>
        <time>2021-06-01T09:22:15.020Z</time>
      </trkpt>
      <trkpt lat="44.35848" lon="3.42629">
        <ele>874.1</ele>
        <time>2021-06-01T09:22:38.622Z</time>
      </trkpt>
      <trkpt lat="44.35701" lon="3.42646">
        <ele>913.2</ele>
        <time>2021-06-01T09:23:57.488Z</time>
      </trkpt>
      <trkpt lat="44.355" lon="3.4266">
        <ele>931</ele>
        <time>2021-06-01T09:25:02.695Z</time>
      </trkpt>
      <trkpt lat="44.34159" lon="3.42639">
        <ele>1031.8</ele>
        <time>2021-06-01T09:31:31.930Z</time>
      </trkpt>
      <trkpt lat="44.34088" lon="3.42497">
        <ele>1061</ele>
        <time>2021-06-01T09:32:38.185Z</time>
      </trkpt>
      <trkpt lat="44.33945" lon="3.42295">
        <ele>1083.4</ele>
        <time>2021-06-01T09:33:59.546Z</time>
      </trkpt>
      <trkpt lat="44.33578" lon="3.42036">
        <ele>1138.1</ele>
        <time>2021-06-01T09:37:38.164Z</time>
      </trkpt>
      <trkpt lat="44.33322" lon="3.42145">
        <ele>1086.7</ele>
        <time>2021-06-01T09:37:58.822Z</time>
      </trkpt>
      <trkpt lat="44.33414" lon="3.41664">
        <ele>1067.8</ele>
        <time>2021-06-01T09:38:26.900Z</time>
      </trkpt>
      <trkpt lat="44.33509" lon="3.41269">
        <ele>1011.8</ele>
        <time>2021-06-01T09:38:49.910Z</time>
      </trkpt>
      <trkpt lat="44.33188" lon="3.41046">
        <ele>1027.5</ele>
        <time>2021-06-01T09:40:12.890Z</time>
      </trkpt>
      <trkpt lat="44.33054" lon="3.40608">
        <ele>1029.8</ele>
        <time>2021-06-01T09:41:03.239Z</time>
      </trkpt>
      <trkpt lat="44.32994" lon="3.40378">
        <ele>1035.3</ele>
        <time>2021-06-01T09:41:37.319Z</time>
      </trkpt>
      <trkpt lat="44.331" lon="3.40231">
        <ele>1028.3</ele>
        <time>2021-06-01T09:41:49.740Z</time>
      </trkpt>
      <trkpt lat="44.3293" lon="3.40056">
        <ele>1045.6</ele>
        <time>2021-06-01T09:42:54.458Z</time>
      </trkpt>
      <trkpt lat="44.32704" lon="3.39872">
        <ele>1038.5</ele>
        <time>2021-06-01T09:43:20.862Z</time>
      </trkpt>
      <trkpt lat="44.32663" lon="3.39133">
        <ele>1009.4</ele>
        <time>2021-06-01T09:44:02.038Z</time>
      </trkpt>
      <trkpt lat="44.32091" lon="3.38296">
        <ele>913.7</ele>
        <time>2021-06-01T09:45:05.961Z</time>
      </trkpt>
      <trkpt lat="44.32128" lon="3.3821">
        <ele>899</ele>
        <time>2021-06-01T09:45:11.503Z</time>
      </trkpt>
      <trkpt lat="44.31643" lon="3.38094">
        <ele>892.2</ele>
        <time>2021-06-01T09:46:09.550Z</time>
      </trkpt>
      <trkpt lat="44.31359" lon="3.38036">
        <ele>875.9</ele>
        <time>2021-06-01T09:46:31.490Z</time>
      </trkpt>
      <trkpt lat="44.3136" lon="3.38043">
        <ele>876.6</ele>
        <time>2021-06-01T09:46:34.220Z</time>
      </trkpt>
      <trkpt lat="44.31328" lon="3.37998">
        <ele>873.9</ele>
        <time>2021-06-01T09:46:37.616Z</time>
      </trkpt>
      <trkpt lat="44.31236" lon="3.37924">
        <ele>878.4</ele>
        <time>2021-06-01T09:47:01.671Z</time>
      </trkpt>
      <trkpt lat="44.31067" lon="3.37785">
        <ele>861.7</ele>
        <time>2021-06-01T09:47:16.809Z</time>
      </trkpt>
      <trkpt lat="44.30819" lon="3.37622">
        <ele>855.5</ele>
        <time>2021-06-01T09:47:45.901Z</time>
      </trkpt>
      <trkpt lat="44.30879" lon="3.37286">
        <ele>833.9</ele>
        <time>2021-06-01T09:48:05.031Z</time>
      </trkpt>
      <trkpt lat="44.30787" lon="3.36608">
        <ele>844.5</ele>
        <time>2021-06-01T09:49:30.237Z</time>
      </trkpt>
      <trkpt lat="44.30372" lon="3.35822">
        <ele>872</ele>
        <time>2021-06-01T09:52:01.724Z</time>
      </trkpt>
      <trkpt lat="44.30273" lon="3.35424">
        <ele>825.6</ele>
        <time>2021-06-01T09:52:25.001Z</time>
      </trkpt>
      <trkpt lat="44.30129" lon="3.35201">
        <ele>820.2</ele>
        <time>2021-06-01T09:52:47.189Z</time>
      </trkpt>
      <trkpt lat="44.3033" lon="3.35012">
        <ele>832.1</ele>
        <time>2021-06-01T09:53:45.576Z</time>
      </trkpt>
      <trkpt lat="44.30443" lon="3.34717">
        <ele>812.4</ele>
        <time>2021-06-01T09:54:04.060Z</time>
      </trkpt>
      <trkpt lat="44.30415" lon="3.34409">
        <ele>802.2</ele>
        <time>2021-06-01T09:54:22.707Z</time>
      </trkpt>
      <trkpt lat="44.30551" lon="3.34257">
        <ele>799.9</ele>
        <time>2021-06-01T09:54:43.412Z</time>
      </trkpt>
      <trkpt lat="44.30578" lon="3.33864">
        <ele>810.5</ele>
        <time>2021-06-01T09:55:43.083Z</time>
      </trkpt>
      <trkpt lat="44.30002" lon="3.33662">
        <ele>830.3</ele>
        <time>2021-06-01T09:57:41.600Z</time>
      </trkpt>
      <trkpt lat="44.30002" lon="3.33662">
        <ele>830.3</ele>
        <time>2021-06-01T09:57:41.600Z</time>
      </trkpt>
      <trkpt lat="44.30002" lon="3.33662">
        <ele>830.3</ele>
        <time>2021-06-01T09:57:41.600Z</time>
      </trkpt>
      <trkpt lat="44.29955" lon="3.33372">
        <ele>818.2</ele>
        <time>2021-06-01T09:57:57.857Z</time>
      </trkpt>
      <trkpt lat="44.29988" lon="3.32859">
        <ele>740.1</ele>
        <time>2021-06-01T09:58:26.313Z</time>
      </trkpt>
      <trkpt lat="44.29865" lon="3.32774">
        <ele>714.2</ele>
        <time>2021-06-01T09:58:36.906Z</time>
      </trkpt>
      <trkpt lat="44.29761" lon="3.32647">
        <ele>695.9</ele>
        <time>2021-06-01T09:58:47.568Z</time>
      </trkpt>
      <trkpt lat="44.29778" lon="3.32589">
        <ele>669.9</ele>
        <time>2021-06-01T09:58:51.031Z</time>
      </trkpt>
      <trkpt lat="44.29816" lon="3.32598">
        <ele>653.3</ele>
        <time>2021-06-01T09:58:54.006Z</time>
      </trkpt>
      <trkpt lat="44.29809" lon="3.32561">
        <ele>645.1</ele>
        <time>2021-06-01T09:58:56.120Z</time>
      </trkpt>
      <trkpt lat="44.29846" lon="3.32473">
        <ele>602.7</ele>
        <time>2021-06-01T09:59:01.759Z</time>
      </trkpt>
      <trkpt lat="44.29832" lon="3.32366">
        <ele>603.1</ele>
        <time>2021-06-01T09:59:13.084Z</time>
      </trkpt>
      <trkpt lat="44.29931" lon="3.32358">
        <ele>554</ele>
        <time>2021-06-01T09:59:20.739Z</time>
      </trkpt>
      <trkpt lat="44.2999" lon="3.32293">
        <ele>522.8</ele>
        <time>2021-06-01T09:59:26.539Z</time>
      </trkpt>
      <trkpt lat="44.3002" lon="3.32304">
        <ele>505.4</ele>
        <time>2021-06-01T09:59:28.933Z</time>
      </trkpt>
      <trkpt lat="44.30002" lon="3.32207">
        <ele>499.5</ele>
        <time>2021-06-01T09:59:34.469Z</time>
      </trkpt>
      <trkpt lat="44.30054" lon="3.32317">
        <ele>488</ele>
        <time>2021-06-01T09:59:41.752Z</time>
      </trkpt>
      <trkpt lat="44.30029" lon="3.32208">
        <ele>482.1</ele>
        <time>2021-06-01T09:59:48.076Z</time>
      </trkpt>
      <trkpt lat="44.29997" lon="3.32096">
        <ele>468.3</ele>
        <time>2021-06-01T09:59:54.738Z</time>
      </trkpt>
    </trkseg>
  </trk>
  <trk>
    <name><![CDATA[Gorges du Tarn et causses_2]]></name>
    <desc><![CDATA[La Malène-grotte sabatio par le cirque des baumes point sublime et les vignes ]]></desc>
    <extensions>
      <line xmlns="http://www.topografix.com/GPX/gpx_style/0/2">
        <color>ff00ff</color>
        <opacity>0.95</opacity>
        <width>2</width>
        <dasharray>4</dasharray>
      </line>
    </extensions>
    <trkseg>
      <trkpt lat="44.29997" lon="3.32096">
        <ele>468.1</ele>
        <time>2021-06-01T09:59:54.738Z</time>
      </trkpt>
      <trkpt lat="44.29997" lon="3.32096">
        <ele>468.1</ele>
        <time>2021-06-01T09:59:54.738Z</time>
      </trkpt>
      <trkpt lat="44.30134" lon="3.3202">
        <ele>453.6</ele>
        <time>2021-06-01T10:00:06.117Z</time>
      </trkpt>
      <trkpt lat="44.30116" lon="3.31838">
        <ele>457.5</ele>
        <time>2021-06-01T10:00:30.673Z</time>
      </trkpt>
      <trkpt lat="44.30097" lon="3.31645">
        <ele>452.1</ele>
        <time>2021-06-01T10:00:43.537Z</time>
      </trkpt>
      <trkpt lat="44.30089" lon="3.31558">
        <ele>454.9</ele>
        <time>2021-06-01T10:00:58.233Z</time>
      </trkpt>
      <trkpt lat="44.3006" lon="3.31493">
        <ele>457.3</ele>
        <time>2021-06-01T10:01:10.576Z</time>
      </trkpt>
      <trkpt lat="44.29939" lon="3.3128">
        <ele>449.9</ele>
        <time>2021-06-01T10:01:28.156Z</time>
      </trkpt>
      <trkpt lat="44.30106" lon="3.31197">
        <ele>468.2</ele>
        <time>2021-06-01T10:02:33.765Z</time>
      </trkpt>
      <trkpt lat="44.30226" lon="3.3114">
        <ele>484.1</ele>
        <time>2021-06-01T10:03:33.304Z</time>
      </trkpt>
      <trkpt lat="44.30549" lon="3.30868">
        <ele>552.8</ele>
        <time>2021-06-01T10:06:54.944Z</time>
      </trkpt>
      <trkpt lat="44.30673" lon="3.3085">
        <ele>622.5</ele>
        <time>2021-06-01T10:08:01.601Z</time>
      </trkpt>
      <trkpt lat="44.30691" lon="3.30769">
        <ele>622.3</ele>
        <time>2021-06-01T10:08:09.422Z</time>
      </trkpt>
      <trkpt lat="44.30743" lon="3.30715">
        <ele>645.4</ele>
        <time>2021-06-01T10:08:44.062Z</time>
      </trkpt>
      <trkpt lat="44.30829" lon="3.30749">
        <ele>694.7</ele>
        <time>2021-06-01T10:09:31.850Z</time>
      </trkpt>
      <trkpt lat="44.30853" lon="3.30709">
        <ele>697</ele>
        <time>2021-06-01T10:09:41.647Z</time>
      </trkpt>
      <trkpt lat="44.30952" lon="3.30603">
        <ele>724</ele>
        <time>2021-06-01T10:10:48.331Z</time>
      </trkpt>
      <trkpt lat="44.3107" lon="3.30388">
        <ele>750</ele>
        <time>2021-06-01T10:12:29.945Z</time>
      </trkpt>
      <trkpt lat="44.31378" lon="3.30384">
        <ele>782.9</ele>
        <time>2021-06-01T10:14:29.686Z</time>
      </trkpt>
      <trkpt lat="44.31703" lon="3.30455">
        <ele>809.8</ele>
        <time>2021-06-01T10:16:10.384Z</time>
      </trkpt>
      <trkpt lat="44.31559" lon="3.29769">
        <ele>812.6</ele>
        <time>2021-06-01T10:17:25.034Z</time>
      </trkpt>
      <trkpt lat="44.31206" lon="3.29268">
        <ele>825.5</ele>
        <time>2021-06-01T10:18:56.183Z</time>
      </trkpt>
      <trkpt lat="44.30836" lon="3.29107">
        <ele>839.2</ele>
        <time>2021-06-01T10:20:15.628Z</time>
      </trkpt>
      <trkpt lat="44.30321" lon="3.28686">
        <ele>868.3</ele>
        <time>2021-06-01T10:22:38.782Z</time>
      </trkpt>
      <trkpt lat="44.30293" lon="3.28446">
        <ele>862.7</ele>
        <time>2021-06-01T10:22:55.643Z</time>
      </trkpt>
      <trkpt lat="44.30723" lon="3.28708">
        <ele>861</ele>
        <time>2021-06-01T10:23:57.249Z</time>
      </trkpt>
      <trkpt lat="44.30967" lon="3.28186">
        <ele>865.4</ele>
        <time>2021-06-01T10:25:05.086Z</time>
      </trkpt>
      <trkpt lat="44.30945" lon="3.27903">
        <ele>857.1</ele>
        <time>2021-06-01T10:25:23.097Z</time>
      </trkpt>
      <trkpt lat="44.31228" lon="3.27423">
        <ele>857.1</ele>
        <time>2021-06-01T10:26:24.789Z</time>
      </trkpt>
      <trkpt lat="44.31201" lon="3.27031">
        <ele>842.4</ele>
        <time>2021-06-01T10:26:47.109Z</time>
      </trkpt>
      <trkpt lat="44.31366" lon="3.26464">
        <ele>842.4</ele>
        <time>2021-06-01T10:27:47.822Z</time>
      </trkpt>
      <trkpt lat="44.31641" lon="3.26392">
        <ele>865.9</ele>
        <time>2021-06-01T10:29:15.335Z</time>
      </trkpt>
      <trkpt lat="44.31702" lon="3.26186">
        <ele>888.3</ele>
        <time>2021-06-01T10:30:40.625Z</time>
      </trkpt>
      <trkpt lat="44.3154" lon="3.25782">
        <ele>906.9</ele>
        <time>2021-06-01T10:32:04.304Z</time>
      </trkpt>
      <trkpt lat="44.31625" lon="3.25249">
        <ele>870.7</ele>
        <time>2021-06-01T10:32:34.465Z</time>
      </trkpt>
      <trkpt lat="44.31696" lon="3.25038">
        <ele>859.5</ele>
        <time>2021-06-01T10:32:47.343Z</time>
      </trkpt>
      <trkpt lat="44.31836" lon="3.24983">
        <ele>864.9</ele>
        <time>2021-06-01T10:33:18.188Z</time>
      </trkpt>
      <trkpt lat="44.31674" lon="3.24797">
        <ele>842.6</ele>
        <time>2021-06-01T10:33:34.371Z</time>
      </trkpt>
      <trkpt lat="44.31559" lon="3.24482">
        <ele>848.6</ele>
        <time>2021-06-01T10:34:18.768Z</time>
      </trkpt>
      <trkpt lat="44.31378" lon="3.24314">
        <ele>840</ele>
        <time>2021-06-01T10:34:38.188Z</time>
      </trkpt>
      <trkpt lat="44.31229" lon="3.24453">
        <ele>752.7</ele>
        <time>2021-06-01T10:34:52.017Z</time>
      </trkpt>
      <trkpt lat="44.31066" lon="3.24262">
        <ele>765.9</ele>
        <time>2021-06-01T10:35:48.375Z</time>
      </trkpt>
      <trkpt lat="44.31124" lon="3.24204">
        <ele>800.7</ele>
        <time>2021-06-01T10:36:26.508Z</time>
      </trkpt>
      <trkpt lat="44.31285" lon="3.24283">
        <ele>837.7</ele>
        <time>2021-06-01T10:37:57.744Z</time>
      </trkpt>
      <trkpt lat="44.31174" lon="3.24188">
        <ele>827.5</ele>
        <time>2021-06-01T10:38:07.791Z</time>
      </trkpt>
      <trkpt lat="44.31188" lon="3.24112">
        <ele>824.8</ele>
        <time>2021-06-01T10:38:12.342Z</time>
      </trkpt>
      <trkpt lat="44.31142" lon="3.2347">
        <ele>874.6</ele>
        <time>2021-06-01T10:41:13.416Z</time>
      </trkpt>
      <trkpt lat="44.30829" lon="3.23057">
        <ele>900.9</ele>
        <time>2021-06-01T10:43:05.569Z</time>
      </trkpt>
      <trkpt lat="44.30567" lon="3.22938">
        <ele>888.2</ele>
        <time>2021-06-01T10:43:28.724Z</time>
      </trkpt>
      <trkpt lat="44.30082" lon="3.23019">
        <ele>925.7</ele>
        <time>2021-06-01T10:45:52.306Z</time>
      </trkpt>
      <trkpt lat="44.2971" lon="3.22791">
        <ele>947.3</ele>
        <time>2021-06-01T10:47:32.693Z</time>
      </trkpt>
      <trkpt lat="44.2961" lon="3.22584">
        <ele>947.1</ele>
        <time>2021-06-01T10:47:57.261Z</time>
      </trkpt>
      <trkpt lat="44.29383" lon="3.22543">
        <ele>939.5</ele>
        <time>2021-06-01T10:48:18.948Z</time>
      </trkpt>
      <trkpt lat="44.29372" lon="3.22293">
        <ele>922.7</ele>
        <time>2021-06-01T10:48:32.787Z</time>
      </trkpt>
      <trkpt lat="44.29023" lon="3.21633">
        <ele>879</ele>
        <time>2021-06-01T10:49:18.127Z</time>
      </trkpt>
      <trkpt lat="44.28841" lon="3.21625">
        <ele>835.5</ele>
        <time>2021-06-01T10:49:32.183Z</time>
      </trkpt>
      <trkpt lat="44.28787" lon="3.21686">
        <ele>822.9</ele>
        <time>2021-06-01T10:49:37.544Z</time>
      </trkpt>
      <trkpt lat="44.28696" lon="3.21663">
        <ele>803.1</ele>
        <time>2021-06-01T10:49:44.682Z</time>
      </trkpt>
      <trkpt lat="44.28472" lon="3.21344">
        <ele>817.9</ele>
        <time>2021-06-01T10:51:00.366Z</time>
      </trkpt>
      <trkpt lat="44.28331" lon="3.2177">
        <ele>782.7</ele>
        <time>2021-06-01T10:51:26.302Z</time>
      </trkpt>
      <trkpt lat="44.28262" lon="3.21997">
        <ele>752.6</ele>
        <time>2021-06-01T10:51:39.931Z</time>
      </trkpt>
      <trkpt lat="44.27945" lon="3.22201">
        <ele>680.4</ele>
        <time>2021-06-01T10:52:06.873Z</time>
      </trkpt>
      <trkpt lat="44.2794" lon="3.22241">
        <ele>664.3</ele>
        <time>2021-06-01T10:52:09.117Z</time>
      </trkpt>
      <trkpt lat="44.2799" lon="3.22328">
        <ele>637.4</ele>
        <time>2021-06-01T10:52:15.283Z</time>
      </trkpt>
      <trkpt lat="44.27883" lon="3.22405">
        <ele>594.1</ele>
        <time>2021-06-01T10:52:24.575Z</time>
      </trkpt>
      <trkpt lat="44.2808" lon="3.22757">
        <ele>481.7</ele>
        <time>2021-06-01T10:52:49.267Z</time>
      </trkpt>
      <trkpt lat="44.27915" lon="3.2278">
        <ele>446.2</ele>
        <time>2021-06-01T10:53:02.067Z</time>
      </trkpt>
      <trkpt lat="44.2774" lon="3.22728">
        <ele>418.7</ele>
        <time>2021-06-01T10:53:15.878Z</time>
      </trkpt>
      <trkpt lat="44.27767" lon="3.23003">
        <ele>441.4</ele>
        <time>2021-06-01T10:54:38.574Z</time>
      </trkpt>
      <trkpt lat="44.2771" lon="3.22958">
        <ele>444.1</ele>
        <time>2021-06-01T10:54:52.839Z</time>
      </trkpt>
      <trkpt lat="44.27577" lon="3.22961">
        <ele>462.9</ele>
        <time>2021-06-01T10:56:03.961Z</time>
      </trkpt>
      <trkpt lat="44.27413" lon="3.23017">
        <ele>494.2</ele>
        <time>2021-06-01T10:57:34.232Z</time>
      </trkpt>
      <trkpt lat="44.27389" lon="3.23193">
        <ele>564.1</ele>
        <time>2021-06-01T10:58:42.822Z</time>
      </trkpt>
      <trkpt lat="44.27275" lon="3.2324">
        <ele>613.4</ele>
        <time>2021-06-01T10:59:46.376Z</time>
      </trkpt>
      <trkpt lat="44.27409" lon="3.23492">
        <ele>699.5</ele>
        <time>2021-06-01T11:01:46.547Z</time>
      </trkpt>
      <trkpt lat="44.27189" lon="3.23403">
        <ele>724.7</ele>
        <time>2021-06-01T11:03:18.050Z</time>
      </trkpt>
      <trkpt lat="44.27322" lon="3.23593">
        <ele>774</ele>
        <time>2021-06-01T11:04:59.777Z</time>
      </trkpt>
      <trkpt lat="44.2721" lon="3.23547">
        <ele>785</ele>
        <time>2021-06-01T11:05:39.936Z</time>
      </trkpt>
      <trkpt lat="44.27355" lon="3.23692">
        <ele>814.4</ele>
        <time>2021-06-01T11:07:15.290Z</time>
      </trkpt>
      <trkpt lat="44.27346" lon="3.23919">
        <ele>859.6</ele>
        <time>2021-06-01T11:08:42.328Z</time>
      </trkpt>
      <trkpt lat="44.27145" lon="3.23703">
        <ele>858.9</ele>
        <time>2021-06-01T11:09:16.255Z</time>
      </trkpt>
      <trkpt lat="44.26979" lon="3.23726">
        <ele>872.1</ele>
        <time>2021-06-01T11:10:05.746Z</time>
      </trkpt>
      <trkpt lat="44.26855" lon="3.23804">
        <ele>886.5</ele>
        <time>2021-06-01T11:10:57.753Z</time>
      </trkpt>
      <trkpt lat="44.26841" lon="3.23946">
        <ele>888.7</ele>
        <time>2021-06-01T11:11:15.656Z</time>
      </trkpt>
      <trkpt lat="44.26764" lon="3.24172">
        <ele>900.2</ele>
        <time>2021-06-01T11:12:03.541Z</time>
      </trkpt>
      <trkpt lat="44.26676" lon="3.24442">
        <ele>909.4</ele>
      </trkpt>
      <trkpt lat="44.26613" lon="3.24662">
        <ele>924</ele>
        <time>2021-06-01T11:12:55.548Z</time>
      </trkpt>
      <trkpt lat="44.26688" lon="3.24868">
        <ele>937.7</ele>
      </trkpt>
      <trkpt lat="44.26802" lon="3.25048">
        <ele>945.1</ele>
      </trkpt>
      <trkpt lat="44.26798" lon="3.25251">
        <ele>948.2</ele>
        <time>2021-06-01T11:13:15.148Z</time>
      </trkpt>
      <trkpt lat="44.26647" lon="3.25382">
        <ele>960.2</ele>
        <time>2021-06-01T11:13:37.879Z</time>
      </trkpt>
      <trkpt lat="44.26529" lon="3.25531">
        <ele>966.7</ele>
      </trkpt>
      <trkpt lat="44.26362" lon="3.25736">
        <ele>991.9</ele>
      </trkpt>
      <trkpt lat="44.25965" lon="3.25905">
        <ele>1006.2</ele>
      </trkpt>
      <trkpt lat="44.25777" lon="3.25934">
        <ele>1002.2</ele>
        <time>2021-06-01T11:14:23.180Z</time>
      </trkpt>
      <trkpt lat="44.25617" lon="3.26001">
        <ele>1003.4</ele>
        <time>2021-06-01T11:14:42.745Z</time>
      </trkpt>
      <trkpt lat="44.25531" lon="3.26021">
        <ele>1007.8</ele>
        <time>2021-06-01T11:15:02.007Z</time>
      </trkpt>
      <trkpt lat="44.25436" lon="3.26032">
        <ele>1008.9</ele>
      </trkpt>
      <trkpt lat="44.25366" lon="3.26074">
        <ele>1007.8</ele>
        <time>2021-06-01T11:15:50.350Z</time>
      </trkpt>
      <trkpt lat="44.25295" lon="3.26074">
        <ele>1003.9</ele>
      </trkpt>
      <trkpt lat="44.25252" lon="3.26129">
        <ele>1003.7</ele>
      </trkpt>
      <trkpt lat="44.2521" lon="3.26326">
        <ele>1001.6</ele>
      </trkpt>
      <trkpt lat="44.25149" lon="3.26383">
        <ele>1002.8</ele>
        <time>2021-06-01T11:16:09.848Z</time>
      </trkpt>
      <trkpt lat="44.25122" lon="3.26383">
        <ele>1002.4</ele>
      </trkpt>
      <trkpt lat="44.25095" lon="3.26396">
        <ele>1002.8</ele>
      </trkpt>
      <trkpt lat="44.25069" lon="3.26397">
        <ele>1002.7</ele>
      </trkpt>
      <trkpt lat="44.25052" lon="3.26392">
        <ele>1002.1</ele>
      </trkpt>
      <trkpt lat="44.25033" lon="3.26403">
        <ele>1002.6</ele>
      </trkpt>
      <trkpt lat="44.25001" lon="3.26414">
        <ele>1002.8</ele>
      </trkpt>
      <trkpt lat="44.24964" lon="3.26426">
        <ele>1002.8</ele>
        <time>2021-06-01T11:16:31.778Z</time>
      </trkpt>
      <trkpt lat="44.24907" lon="3.26464">
        <ele>1004.7</ele>
      </trkpt>
      <trkpt lat="44.24842" lon="3.2646">
        <ele>1007.3</ele>
      </trkpt>
      <trkpt lat="44.24755" lon="3.26459">
        <ele>1008.9</ele>
        <time>2021-06-01T11:16:56.967Z</time>
      </trkpt>
      <trkpt lat="44.24754" lon="3.26463">
        <ele>1009.1</ele>
      </trkpt>
      <trkpt lat="44.24593" lon="3.2654">
        <ele>1004.4</ele>
        <time>2021-06-01T11:17:10.619Z</time>
      </trkpt>
      <trkpt lat="44.24514" lon="3.26561">
        <ele>1006.4</ele>
      </trkpt>
      <trkpt lat="44.24471" lon="3.26585">
        <ele>1007.6</ele>
      </trkpt>
      <trkpt lat="44.24445" lon="3.265">
        <ele>1010.9</ele>
      </trkpt>
      <trkpt lat="44.24392" lon="3.26425">
        <ele>1009.2</ele>
        <time>2021-06-01T11:17:25.975Z</time>
      </trkpt>
    </trkseg>
  </trk>
  <trk>
    <name><![CDATA[Gorges du Tarn et causses_3]]></name>
    <trkseg>
      <trkpt lat="44.26014" lon="3.24206">
        <ele>836.2</ele>
      </trkpt>
      <trkpt lat="44.25945" lon="3.24238">
        <ele>843.9</ele>
      </trkpt>
      <trkpt lat="44.25842" lon="3.24286">
        <ele>860.8</ele>
      </trkpt>
      <trkpt lat="44.25622" lon="3.24444">
        <ele>892.5</ele>
      </trkpt>
      <trkpt lat="44.25386" lon="3.24474">
        <ele>885.9</ele>
      </trkpt>
      <trkpt lat="44.25085" lon="3.24438">
        <ele>873</ele>
      </trkpt>
      <trkpt lat="44.25034" lon="3.24506">
        <ele>881.3</ele>
      </trkpt>
      <trkpt lat="44.24887" lon="3.24422">
        <ele>889.4</ele>
      </trkpt>
      <trkpt lat="44.24592" lon="3.24302">
        <ele>861.8</ele>
      </trkpt>
      <trkpt lat="44.24535" lon="3.24268">
        <ele>855.7</ele>
      </trkpt>
      <trkpt lat="44.24406" lon="3.24248">
        <ele>851.6</ele>
      </trkpt>
      <trkpt lat="44.24334" lon="3.2426">
        <ele>854.7</ele>
      </trkpt>
      <trkpt lat="44.24177" lon="3.24188">
        <ele>858.6</ele>
      </trkpt>
      <trkpt lat="44.24156" lon="3.24228">
        <ele>858.2</ele>
      </trkpt>
      <trkpt lat="44.24097" lon="3.24401">
        <ele>862.7</ele>
      </trkpt>
      <trkpt lat="44.23824" lon="3.24317">
        <ele>871.3</ele>
      </trkpt>
      <trkpt lat="44.23734" lon="3.2431">
        <ele>871.5</ele>
      </trkpt>
      <trkpt lat="44.235" lon="3.24315">
        <ele>868.9</ele>
      </trkpt>
      <trkpt lat="44.23315" lon="3.24365">
        <ele>868.7</ele>
      </trkpt>
      <trkpt lat="44.23135" lon="3.24365">
        <ele>866.5</ele>
      </trkpt>
      <trkpt lat="44.22915" lon="3.24287">
        <ele>875.7</ele>
      </trkpt>
      <trkpt lat="44.22914" lon="3.24316">
        <ele>877.1</ele>
      </trkpt>
      <trkpt lat="44.22909" lon="3.24325">
        <ele>877.2</ele>
      </trkpt>
      <trkpt lat="44.22908" lon="3.2432">
        <ele>877</ele>
      </trkpt>
      <trkpt lat="44.22862" lon="3.24385">
        <ele>878.2</ele>
      </trkpt>
      <trkpt lat="44.22723" lon="3.24403">
        <ele>869.9</ele>
      </trkpt>
      <trkpt lat="44.22599" lon="3.24346">
        <ele>857.8</ele>
      </trkpt>
      <trkpt lat="44.22443" lon="3.24283">
        <ele>849.9</ele>
      </trkpt>
      <trkpt lat="44.22352" lon="3.2422">
        <ele>842.1</ele>
      </trkpt>
      <trkpt lat="44.22318" lon="3.2425">
        <ele>844.8</ele>
      </trkpt>
      <trkpt lat="44.22284" lon="3.24256">
        <ele>844.9</ele>
      </trkpt>
      <trkpt lat="44.22133" lon="3.24274">
        <ele>850.8</ele>
      </trkpt>
      <trkpt lat="44.22028" lon="3.24251">
        <ele>859.4</ele>
      </trkpt>
      <trkpt lat="44.21968" lon="3.24147">
        <ele>868.1</ele>
      </trkpt>
      <trkpt lat="44.21892" lon="3.24157">
        <ele>863.1</ele>
      </trkpt>
      <trkpt lat="44.2176" lon="3.24133">
        <ele>869.9</ele>
      </trkpt>
      <trkpt lat="44.21458" lon="3.24085">
        <ele>880.8</ele>
      </trkpt>
      <trkpt lat="44.21214" lon="3.2401">
        <ele>887</ele>
      </trkpt>
      <trkpt lat="44.21045" lon="3.23993">
        <ele>899.5</ele>
      </trkpt>
      <trkpt lat="44.20824" lon="3.23941">
        <ele>890.4</ele>
      </trkpt>
      <trkpt lat="44.20707" lon="3.2382">
        <ele>872.7</ele>
        <time>2021-06-01T11:38:20.222Z</time>
      </trkpt>
      <trkpt lat="44.20466" lon="3.23789">
        <ele>846.2</ele>
        <time>2021-06-01T11:38:38.904Z</time>
      </trkpt>
      <trkpt lat="44.20228" lon="3.24155">
        <ele>822.6</ele>
        <time>2021-06-01T11:39:03.963Z</time>
      </trkpt>
      <trkpt lat="44.20059" lon="3.24232">
        <ele>803</ele>
        <time>2021-06-01T11:39:17.687Z</time>
      </trkpt>
      <trkpt lat="44.19961" lon="3.24182">
        <ele>810.2</ele>
        <time>2021-06-01T11:39:46.785Z</time>
      </trkpt>
      <trkpt lat="44.19862" lon="3.24297">
        <ele>781.6</ele>
        <time>2021-06-01T11:39:56.730Z</time>
      </trkpt>
      <trkpt lat="44.19776" lon="3.24087">
        <ele>771.8</ele>
        <time>2021-06-01T11:40:10.205Z</time>
      </trkpt>
      <trkpt lat="44.19759" lon="3.239">
        <ele>815.2</ele>
        <time>2021-06-01T11:41:22.462Z</time>
      </trkpt>
      <trkpt lat="44.19582" lon="3.23936">
        <ele>774.4</ele>
        <time>2021-06-01T11:41:36.270Z</time>
      </trkpt>
      <trkpt lat="44.19466" lon="3.23856">
        <ele>737.7</ele>
        <time>2021-06-01T11:41:46.259Z</time>
      </trkpt>
      <trkpt lat="44.19378" lon="3.23672">
        <ele>731.2</ele>
        <time>2021-06-01T11:41:59.553Z</time>
      </trkpt>
      <trkpt lat="44.19399" lon="3.23532">
        <ele>780.9</ele>
        <time>2021-06-01T11:42:54.385Z</time>
      </trkpt>
      <trkpt lat="44.19337" lon="3.23488">
        <ele>567.5</ele>
        <time>2021-06-01T11:42:59.755Z</time>
      </trkpt>
      <trkpt lat="44.19346" lon="3.23141">
        <ele>642.3</ele>
        <time>2021-06-01T11:45:12.868Z</time>
      </trkpt>
      <trkpt lat="44.19358" lon="3.23091">
        <ele>660.5</ele>
        <time>2021-06-01T11:45:33.082Z</time>
      </trkpt>
      <trkpt lat="44.194" lon="3.23083">
        <ele>739.3</ele>
        <time>2021-06-01T11:45:55.747Z</time>
      </trkpt>
      <trkpt lat="44.19418" lon="3.22969">
        <ele>715.7</ele>
        <time>2021-06-01T11:46:02.208Z</time>
      </trkpt>
      <trkpt lat="44.19476" lon="3.22928">
        <ele>749.1</ele>
        <time>2021-06-01T11:46:36.975Z</time>
      </trkpt>
      <trkpt lat="44.19534" lon="3.229">
        <ele>767.5</ele>
        <time>2021-06-01T11:47:09.792Z</time>
      </trkpt>
      <trkpt lat="44.1956" lon="3.22865">
        <ele>757.9</ele>
        <time>2021-06-01T11:47:12.581Z</time>
      </trkpt>
      <trkpt lat="44.19593" lon="3.22864">
        <ele>766.3</ele>
        <time>2021-06-01T11:47:30.230Z</time>
      </trkpt>
      <trkpt lat="44.19628" lon="3.22843">
        <ele>760.2</ele>
        <time>2021-06-01T11:47:33.171Z</time>
      </trkpt>
      <trkpt lat="44.19739" lon="3.22859">
        <ele>789.1</ele>
        <time>2021-06-01T11:48:32.837Z</time>
      </trkpt>
      <trkpt lat="44.19801" lon="3.22717">
        <ele>769.1</ele>
        <time>2021-06-01T11:48:42.038Z</time>
      </trkpt>
      <trkpt lat="44.19746" lon="3.22626">
        <ele>736.6</ele>
        <time>2021-06-01T11:48:48.625Z</time>
      </trkpt>
      <trkpt lat="44.19656" lon="3.2255">
        <ele>699.1</ele>
        <time>2021-06-01T11:48:56.746Z</time>
      </trkpt>
      <trkpt lat="44.19744" lon="3.22494">
        <ele>729.4</ele>
        <time>2021-06-01T11:49:48.464Z</time>
      </trkpt>
      <trkpt lat="44.19729" lon="3.22526">
        <ele>727.2</ele>
        <time>2021-06-01T11:49:50.580Z</time>
      </trkpt>
      <trkpt lat="44.19788" lon="3.22517">
        <ele>759.9</ele>
        <time>2021-06-01T11:50:22.314Z</time>
      </trkpt>
      <trkpt lat="44.19872" lon="3.22597">
        <ele>809</ele>
        <time>2021-06-01T11:51:16.698Z</time>
      </trkpt>
      <trkpt lat="44.19872" lon="3.22531">
        <ele>800.7</ele>
        <time>2021-06-01T11:51:20.351Z</time>
      </trkpt>
      <trkpt lat="44.19887" lon="3.2259">
        <ele>814.5</ele>
        <time>2021-06-01T11:51:44.347Z</time>
      </trkpt>
      <trkpt lat="44.19875" lon="3.22614">
        <ele>808</ele>
        <time>2021-06-01T11:51:45.967Z</time>
      </trkpt>
      <trkpt lat="44.19838" lon="3.22578">
        <ele>799.6</ele>
        <time>2021-06-01T11:51:49.449Z</time>
      </trkpt>
      <trkpt lat="44.19826" lon="3.22545">
        <ele>788.6</ele>
        <time>2021-06-01T11:51:51.497Z</time>
      </trkpt>
      <trkpt lat="44.19806" lon="3.2251">
        <ele>770.6</ele>
        <time>2021-06-01T11:51:53.974Z</time>
      </trkpt>
      <trkpt lat="44.1982" lon="3.22467">
        <ele>769.8</ele>
        <time>2021-06-01T11:51:57.527Z</time>
      </trkpt>
      <trkpt lat="44.19832" lon="3.22408">
        <ele>762.5</ele>
        <time>2021-06-01T11:52:00.921Z</time>
      </trkpt>
      <trkpt lat="44.19861" lon="3.22361">
        <ele>747.4</ele>
        <time>2021-06-01T11:52:04.353Z</time>
      </trkpt>
      <trkpt lat="44.19839" lon="3.22301">
        <ele>750.8</ele>
        <time>2021-06-01T11:52:17.262Z</time>
      </trkpt>
      <trkpt lat="44.19811" lon="3.22283">
        <ele>749.2</ele>
        <time>2021-06-01T11:52:19.717Z</time>
      </trkpt>
      <trkpt lat="44.19797" lon="3.22175">
        <ele>750.2</ele>
        <time>2021-06-01T11:52:32.226Z</time>
      </trkpt>
      <trkpt lat="44.19807" lon="3.22114">
        <ele>750.7</ele>
        <time>2021-06-01T11:52:39.152Z</time>
      </trkpt>
      <trkpt lat="44.19781" lon="3.22109">
        <ele>748.4</ele>
        <time>2021-06-01T11:52:41.178Z</time>
      </trkpt>
      <trkpt lat="44.19709" lon="3.22063">
        <ele>723.8</ele>
        <time>2021-06-01T11:52:47.291Z</time>
      </trkpt>
      <trkpt lat="44.19601" lon="3.22033">
        <ele>696.1</ele>
        <time>2021-06-01T11:52:55.792Z</time>
      </trkpt>
      <trkpt lat="44.19503" lon="3.21951">
        <ele>686</ele>
        <time>2021-06-01T11:53:04.614Z</time>
      </trkpt>
      <trkpt lat="44.19473" lon="3.21864">
        <ele>651.1</ele>
        <time>2021-06-01T11:53:09.957Z</time>
      </trkpt>
      <trkpt lat="44.19527" lon="3.21802">
        <ele>643.3</ele>
        <time>2021-06-01T11:53:15.356Z</time>
      </trkpt>
      <trkpt lat="44.195" lon="3.21733">
        <ele>629.3</ele>
        <time>2021-06-01T11:53:19.706Z</time>
      </trkpt>
      <trkpt lat="44.19433" lon="3.21754">
        <ele>598.4</ele>
        <time>2021-06-01T11:53:25.007Z</time>
      </trkpt>
      <trkpt lat="44.19361" lon="3.21588">
        <ele>586.9</ele>
        <time>2021-06-01T11:53:35.745Z</time>
      </trkpt>
      <trkpt lat="44.19334" lon="3.21479">
        <ele>586.9</ele>
        <time>2021-06-01T11:53:47.467Z</time>
      </trkpt>
      <trkpt lat="44.19307" lon="3.21527">
        <ele>572.5</ele>
        <time>2021-06-01T11:53:50.843Z</time>
      </trkpt>
      <trkpt lat="44.19171" lon="3.21301">
        <ele>502.1</ele>
        <time>2021-06-01T11:54:07.174Z</time>
      </trkpt>
      <trkpt lat="44.19256" lon="3.21055">
        <ele>473.2</ele>
        <time>2021-06-01T11:54:22.288Z</time>
      </trkpt>
      <trkpt lat="44.19157" lon="3.21198">
        <ele>473.8</ele>
        <time>2021-06-01T11:54:42.976Z</time>
      </trkpt>
      <trkpt lat="44.19086" lon="3.2118">
        <ele>437</ele>
        <time>2021-06-01T11:54:48.546Z</time>
      </trkpt>
      <trkpt lat="44.1914" lon="3.20832">
        <ele>412.4</ele>
        <time>2021-06-01T11:55:08.254Z</time>
      </trkpt>
      <trkpt lat="44.19131" lon="3.20691">
        <ele>404.1</ele>
        <time>2021-06-01T11:55:16.089Z</time>
      </trkpt>
    </trkseg>
  </trk>
</gpx>